createdAt,value
2019-02-21T00:01:28.836Z,33.78
2019-02-21T00:04:00.516Z,29.52
2019-02-21T00:06:31.842Z,28.75
2019-02-21T00:09:04.822Z,30.00
2019-02-21T00:11:36.352Z,26.05
2019-02-21T00:14:07.702Z,30.23
2019-02-21T00:16:40.189Z,28.73
2019-02-21T00:19:11.791Z,28.10
2019-02-21T00:21:43.323Z,31.15
2019-02-21T00:24:15.425Z,28.45
2019-02-21T00:26:46.622Z,28.73
2019-02-21T00:29:18.405Z,29.70
2019-02-21T00:31:49.825Z,27.90
2019-02-21T00:34:21.527Z,28.40
2019-02-21T00:36:53.171Z,28.83
2019-02-21T00:39:24.610Z,28.12
2019-02-21T00:41:56.150Z,31.75
2019-02-21T00:44:27.547Z,27.52
2019-02-21T00:46:59.055Z,31.05
2019-02-21T00:49:30.489Z,29.35
2019-02-21T00:52:02.861Z,31.95
2019-02-21T00:54:34.718Z,30.05
2019-02-21T00:57:06.310Z,30.85
2019-02-21T00:59:37.532Z,33.75
2019-02-21T01:02:09.018Z,35.95
2019-02-21T01:04:40.575Z,32.50
2019-02-21T01:07:12.200Z,33.23
2019-02-21T01:09:43.884Z,34.48
2019-02-21T01:12:15.171Z,36.73
2019-02-21T01:14:46.716Z,34.08
2019-02-21T01:17:18.315Z,33.10
2019-02-21T01:19:49.789Z,32.88
2019-02-21T01:22:21.220Z,34.83
2019-02-21T01:24:53.011Z,35.23
2019-02-21T01:27:24.674Z,32.85
2019-02-21T01:29:56.145Z,34.23
2019-02-21T01:32:27.502Z,34.75
2019-02-21T01:34:59.319Z,34.15
2019-02-21T01:37:30.797Z,32.90
2019-02-21T01:40:02.140Z,36.05
2019-02-21T01:42:34.080Z,31.97
2019-02-21T01:45:05.817Z,35.05
2019-02-21T01:47:37.432Z,32.65
2019-02-21T01:50:08.987Z,33.35
2019-02-21T01:52:40.402Z,32.70
2019-02-21T01:55:11.887Z,33.48
2019-02-21T01:57:43.491Z,33.35
2019-02-21T02:00:14.938Z,30.45
2019-02-21T02:02:46.450Z,32.17
2019-02-21T02:05:18.107Z,31.65
2019-02-21T02:07:49.755Z,31.82
2019-02-21T02:10:21.748Z,30.90
2019-02-21T02:12:53.283Z,31.68
2019-02-21T02:15:24.990Z,27.37
2019-02-21T02:17:57.492Z,28.67
2019-02-21T02:20:28.902Z,26.05
2019-02-21T02:23:00.283Z,27.58
2019-02-21T02:25:32.030Z,27.80
2019-02-21T02:28:03.528Z,29.18
2019-02-21T02:30:35.217Z,27.65
2019-02-21T02:33:06.774Z,31.17
2019-02-21T02:35:39.326Z,25.88
2019-02-21T02:38:10.950Z,27.42
2019-02-21T02:40:42.517Z,28.07
2019-02-21T02:43:14.269Z,27.73
2019-02-21T02:45:45.874Z,30.45
2019-02-21T02:48:17.453Z,27.93
2019-02-21T02:50:49.344Z,30.65
2019-02-21T02:53:21.005Z,30.10
2019-02-21T02:55:52.268Z,32.03
2019-02-21T02:58:23.941Z,28.52
2019-02-21T03:00:55.579Z,27.75
2019-02-21T03:03:27.017Z,27.17
2019-02-21T03:05:58.681Z,28.57
2019-02-21T03:08:30.262Z,29.77
2019-02-21T03:11:01.973Z,29.87
2019-02-21T03:13:33.433Z,29.42
2019-02-21T03:16:05.146Z,30.30
2019-02-21T03:18:36.520Z,27.90
2019-02-21T03:21:08.054Z,29.45
2019-02-21T03:23:39.561Z,31.82
2019-02-21T03:26:11.440Z,29.90
2019-02-21T03:28:42.822Z,31.50
2019-02-21T03:31:14.156Z,31.40
2019-02-21T03:33:46.574Z,31.15
2019-02-21T03:36:18.141Z,30.45
2019-02-21T03:38:49.890Z,29.40
2019-02-21T03:41:21.402Z,27.95
2019-02-21T03:43:53.063Z,29.40
2019-02-21T03:46:24.456Z,28.27
2019-02-21T03:48:55.970Z,28.10
2019-02-21T03:51:27.461Z,32.70
2019-02-21T03:53:59.095Z,28.38
2019-02-21T03:56:30.787Z,26.93
2019-02-21T03:59:02.273Z,30.12
2019-02-21T04:01:34.652Z,27.22
2019-02-21T04:04:06.164Z,27.93
2019-02-21T04:06:37.618Z,28.45
2019-02-21T04:09:10.050Z,28.20
2019-02-21T04:11:41.285Z,25.52
2019-02-21T04:14:12.910Z,26.90
2019-02-21T04:16:44.367Z,25.75
2019-02-21T04:19:15.829Z,26.37
2019-02-21T04:21:47.424Z,22.93
2019-02-21T04:24:20.264Z,25.48
2019-02-21T04:26:51.490Z,24.20
2019-02-21T04:29:23.166Z,22.40
2019-02-21T04:31:54.839Z,24.05
2019-02-21T04:34:26.441Z,23.55
2019-02-21T04:36:57.913Z,23.52
2019-02-21T04:39:29.525Z,21.52
2019-02-21T04:42:00.746Z,24.60
2019-02-21T04:44:32.367Z,23.80
2019-02-21T04:47:03.701Z,26.27
2019-02-21T04:49:35.088Z,21.82
2019-02-21T04:52:06.291Z,21.62
2019-02-21T04:54:37.674Z,23.35
2019-02-21T04:57:09.024Z,22.37
2019-02-21T04:59:40.310Z,23.83
2019-02-21T05:02:11.737Z,22.07
2019-02-21T05:04:43.038Z,22.82
2019-02-21T05:07:14.421Z,24.47
2019-02-21T05:09:57.043Z,23.22
2019-02-21T05:12:19.545Z,20.20
2019-02-21T05:14:50.761Z,22.42
2019-02-21T05:17:22.151Z,24.12
2019-02-21T05:19:53.448Z,25.68
2019-02-21T05:22:25.030Z,22.75
2019-02-21T05:24:56.649Z,23.00
2019-02-21T05:27:31.565Z,23.10
2019-02-21T05:30:03.015Z,22.82
2019-02-21T05:32:53.195Z,26.27
2019-02-21T05:35:31.529Z,24.18
2019-02-21T05:38:22.000Z,23.98
2019-02-21T05:41:04.629Z,24.92
2019-02-21T05:43:54.977Z,21.85
2019-02-21T05:46:32.926Z,24.07
2019-02-21T05:49:16.689Z,28.42
2019-02-21T05:52:01.597Z,28.65
2019-02-21T05:54:51.992Z,25.17
2019-02-21T05:57:48.364Z,27.13
2019-02-21T06:00:37.674Z,28.15
2019-02-21T06:03:13.981Z,29.82
2019-02-21T06:06:10.113Z,25.95
2019-02-21T06:09:00.337Z,23.73
2019-02-21T06:11:48.885Z,22.48
2019-02-21T06:14:45.386Z,22.50
2019-02-21T06:17:34.407Z,29.90
2019-02-21T06:20:23.514Z,24.65
2019-02-21T06:23:12.573Z,27.13
2019-02-21T06:26:02.830Z,28.77
2019-02-21T06:28:42.474Z,27.80
2019-02-21T06:31:16.881Z,25.40
2019-02-21T06:33:49.484Z,28.25
2019-02-21T06:36:20.927Z,25.30
2019-02-21T06:38:52.469Z,26.10
2019-02-21T06:41:23.855Z,25.20
2019-02-21T06:43:56.850Z,24.95
2019-02-21T06:46:28.520Z,28.02
2019-02-21T06:49:00.022Z,24.98
2019-02-21T06:51:31.373Z,24.98
2019-02-21T06:54:02.838Z,25.48
2019-02-21T06:56:34.433Z,26.48
2019-02-21T06:59:05.799Z,26.68
2019-02-21T07:01:37.363Z,32.75
2019-02-21T07:04:08.980Z,35.10
2019-02-21T07:06:42.097Z,35.17
2019-02-21T07:09:13.612Z,24.25
2019-02-21T07:11:46.009Z,24.87
2019-02-21T07:14:17.644Z,28.00
2019-02-21T07:16:49.097Z,27.75
2019-02-21T07:19:20.635Z,28.07
2019-02-21T07:21:52.227Z,26.52
2019-02-21T07:24:24.075Z,25.62
2019-02-21T07:26:55.436Z,25.60
2019-02-21T07:29:26.906Z,26.97
2019-02-21T07:31:58.445Z,28.42
2019-02-21T07:34:30.592Z,26.90
2019-02-21T07:37:02.043Z,29.23
2019-02-21T07:39:36.337Z,26.35
2019-02-21T07:42:07.117Z,25.80
2019-02-21T07:44:38.869Z,27.25
2019-02-21T07:47:10.532Z,28.15
2019-02-21T07:49:42.254Z,30.40
2019-02-21T07:52:13.690Z,28.00
2019-02-21T07:54:44.951Z,26.50
2019-02-21T07:57:16.594Z,27.30
2019-02-21T07:59:47.932Z,28.45
2019-02-21T08:02:21.052Z,25.43
2019-02-21T08:04:52.771Z,29.30
2019-02-21T08:07:26.273Z,29.67
2019-02-21T08:09:58.517Z,29.52
2019-02-21T08:12:30.048Z,27.40
2019-02-21T08:15:01.879Z,28.02
2019-02-21T08:17:34.423Z,29.57
2019-02-21T08:20:08.765Z,25.75
2019-02-21T08:22:39.507Z,22.87
2019-02-21T08:25:11.296Z,23.18
2019-02-21T08:27:42.740Z,23.87
2019-02-21T08:30:15.413Z,25.35
2019-02-21T08:33:14.477Z,25.02
2019-02-21T08:35:46.075Z,25.52
2019-02-21T08:38:17.714Z,26.50
2019-02-21T08:40:49.170Z,20.68
2019-02-21T08:43:20.922Z,23.25
2019-02-21T08:45:52.218Z,25.12
2019-02-21T08:48:23.612Z,21.17
2019-02-21T08:50:55.192Z,23.02
2019-02-21T08:53:28.081Z,22.10
2019-02-21T08:56:00.006Z,23.10
2019-02-21T08:58:31.249Z,24.13
2019-02-21T09:01:03.237Z,21.07
2019-02-21T09:03:35.170Z,17.67
2019-02-21T09:06:07.082Z,17.23
2019-02-21T09:08:38.132Z,20.37
2019-02-21T09:11:09.804Z,17.23
2019-02-21T09:13:41.790Z,19.37
2019-02-21T09:16:13.270Z,16.63
2019-02-21T09:18:44.395Z,16.50
2019-02-21T09:21:15.969Z,15.83
2019-02-21T09:23:47.465Z,17.33
2019-02-21T09:26:21.459Z,18.83
2019-02-21T09:28:51.883Z,19.75
2019-02-21T09:31:23.565Z,19.15
2019-02-21T09:33:55.444Z,19.40
2019-02-21T09:36:26.954Z,20.00
2019-02-21T09:38:58.091Z,18.83
2019-02-21T09:41:29.460Z,18.87
2019-02-21T09:44:00.839Z,15.95
2019-02-21T09:46:32.467Z,15.55
2019-02-21T09:49:03.876Z,16.07
2019-02-21T09:51:36.627Z,13.03
2019-02-21T09:54:08.025Z,18.20
2019-02-21T09:56:39.222Z,17.77
2019-02-21T09:59:10.544Z,15.63
2019-02-21T10:01:41.769Z,17.67
2019-02-21T10:04:12.995Z,17.20
2019-02-21T10:06:44.298Z,15.07
2019-02-21T10:09:15.557Z,16.53
2019-02-21T10:11:46.779Z,15.83
2019-02-21T10:14:18.087Z,16.00
2019-02-21T10:16:49.742Z,15.80
2019-02-21T10:19:21.142Z,13.93
2019-02-21T10:21:52.498Z,12.10
2019-02-21T10:24:23.552Z,14.90
2019-02-21T10:26:54.979Z,13.87
2019-02-21T10:29:26.201Z,12.60
2019-02-21T10:31:57.766Z,19.80
2019-02-21T10:34:29.029Z,14.90
2019-02-21T10:37:00.414Z,15.47
2019-02-21T10:39:31.651Z,14.20
2019-02-21T10:42:02.854Z,15.23
2019-02-21T10:44:34.000Z,15.03
2019-02-21T10:47:05.265Z,14.17
2019-02-21T10:49:36.335Z,15.40
2019-02-21T10:52:07.555Z,14.50
2019-02-21T10:54:38.828Z,14.30
2019-02-21T10:57:10.075Z,14.70
2019-02-21T10:59:46.575Z,15.80
2019-02-21T11:02:15.645Z,16.43
2019-02-21T11:04:54.338Z,16.17
2019-02-21T11:07:20.354Z,13.70
2019-02-21T11:09:51.800Z,17.45
2019-02-21T11:12:22.906Z,16.73
2019-02-21T11:14:54.231Z,16.90
2019-02-21T11:17:25.941Z,11.67
2019-02-21T11:19:57.143Z,15.77
2019-02-21T11:22:28.333Z,15.47
2019-02-21T11:24:59.620Z,17.70
2019-02-21T11:27:31.173Z,14.07
2019-02-21T11:30:02.167Z,18.77
2019-02-21T11:32:34.070Z,14.17
2019-02-21T11:35:06.807Z,12.40
2019-02-21T11:37:44.287Z,17.05
2019-02-21T11:40:12.456Z,13.00
2019-02-21T11:42:43.845Z,12.93
2019-02-21T11:45:16.184Z,13.17
2019-02-21T11:47:47.572Z,14.67
2019-02-21T11:50:19.038Z,14.97
2019-02-21T11:52:50.323Z,13.37
2019-02-21T11:55:22.579Z,13.80
2019-02-21T11:57:53.627Z,15.67
2019-02-21T12:00:26.452Z,17.20
2019-02-21T12:02:58.047Z,12.67
2019-02-21T12:05:31.302Z,19.73
2019-02-21T12:08:02.563Z,12.70
2019-02-21T12:10:33.920Z,15.63
2019-02-21T12:13:05.161Z,16.00
2019-02-21T12:15:36.424Z,13.20
2019-02-21T12:18:07.720Z,15.97
2019-02-21T12:20:39.240Z,18.50
2019-02-21T12:23:10.652Z,13.67
2019-02-21T12:25:41.827Z,11.67
2019-02-21T12:28:13.261Z,12.27
2019-02-21T12:30:44.713Z,13.57
2019-02-21T12:33:15.629Z,13.43
2019-02-21T12:35:46.916Z,11.57
2019-02-21T12:38:18.132Z,13.20
2019-02-21T12:40:49.436Z,10.63
2019-02-21T12:43:20.998Z,11.97
2019-02-21T12:45:53.750Z,11.97
2019-02-21T12:48:24.935Z,11.40
2019-02-21T12:50:56.199Z,12.30
2019-02-21T12:53:28.180Z,13.57
2019-02-21T12:55:59.878Z,11.12
2019-02-21T12:58:31.070Z,10.10
2019-02-21T13:01:02.311Z,15.67
2019-02-21T13:03:33.534Z,11.90
2019-02-21T13:06:04.904Z,13.53
2019-02-21T13:08:35.999Z,18.03
2019-02-21T13:11:08.451Z,10.57
2019-02-21T13:13:39.712Z,16.30
2019-02-21T13:16:10.753Z,11.90
2019-02-21T13:18:42.225Z,11.07
2019-02-21T13:21:13.671Z,10.87
2019-02-21T13:23:44.975Z,12.70
2019-02-21T13:26:16.274Z,10.57
2019-02-21T13:28:47.621Z,13.90
2019-02-21T13:31:18.892Z,12.67
2019-02-21T13:33:50.017Z,10.80
2019-02-21T13:36:21.337Z,9.97
2019-02-21T13:38:52.510Z,10.77
2019-02-21T13:41:23.911Z,9.30
2019-02-21T13:43:55.204Z,10.33
2019-02-21T13:46:36.904Z,11.43
2019-02-21T13:48:59.202Z,10.73
2019-02-21T13:51:30.452Z,9.60
2019-02-21T13:54:01.389Z,11.30
2019-02-21T13:56:32.772Z,12.73
2019-02-21T13:59:03.773Z,12.03
2019-02-21T14:01:34.937Z,14.53
2019-02-21T14:04:05.977Z,13.47
2019-02-21T14:06:37.357Z,11.30
2019-02-21T14:09:08.969Z,12.50
2019-02-21T14:11:40.937Z,12.50
2019-02-21T14:14:12.323Z,14.17
2019-02-21T14:16:46.804Z,10.97
2019-02-21T14:19:16.830Z,10.77
2019-02-21T14:21:48.142Z,13.70
2019-02-21T14:24:19.535Z,14.50
2019-02-21T14:26:50.560Z,16.50
2019-02-21T14:29:22.200Z,13.58
2019-02-21T14:31:53.468Z,12.53
2019-02-21T14:34:24.467Z,13.57
2019-02-21T14:36:55.824Z,11.83
2019-02-21T14:39:27.595Z,11.95
2019-02-21T14:41:58.733Z,12.53
2019-02-21T14:44:29.938Z,12.95
2019-02-21T14:47:01.352Z,12.03
2019-02-21T14:49:32.727Z,12.65
2019-02-21T14:52:04.414Z,16.17
2019-02-21T14:54:38.056Z,14.13
2019-02-21T14:57:09.537Z,13.62
2019-02-21T14:59:40.875Z,14.73
2019-02-21T15:02:12.200Z,12.73
2019-02-21T15:04:43.863Z,14.15
2019-02-21T15:07:15.501Z,12.58
2019-02-21T15:09:46.864Z,10.55
2019-02-21T15:12:18.362Z,10.15
2019-02-21T15:14:49.696Z,10.48
2019-02-21T15:17:21.282Z,11.88
2019-02-21T15:19:52.850Z,12.10
2019-02-21T15:22:24.489Z,12.65
2019-02-21T15:24:56.092Z,11.25
2019-02-21T15:27:27.471Z,11.68
2019-02-21T15:29:58.724Z,9.60
2019-02-21T15:32:30.386Z,19.23
2019-02-21T15:35:01.783Z,11.43
2019-02-21T15:37:35.060Z,11.80
2019-02-21T15:40:08.820Z,13.30
2019-02-21T15:42:40.367Z,11.63
2019-02-21T15:45:22.329Z,16.23
2019-02-21T15:47:47.768Z,10.38
2019-02-21T15:50:20.145Z,12.43
2019-02-21T15:52:51.823Z,13.50
2019-02-21T15:55:23.321Z,12.60
2019-02-21T15:58:03.303Z,14.38
2019-02-21T16:00:27.966Z,12.15
2019-02-21T16:02:59.646Z,13.25
2019-02-21T16:05:31.313Z,12.58
2019-02-21T16:08:02.954Z,12.03
2019-02-21T16:10:34.420Z,15.25
2019-02-21T16:13:05.955Z,13.35
2019-02-21T16:15:37.490Z,14.98
2019-02-21T16:18:08.910Z,17.73
2019-02-21T16:20:42.409Z,21.45
2019-02-21T16:23:14.039Z,16.67
2019-02-21T16:25:45.452Z,18.95
2019-02-21T16:28:16.657Z,15.68
2019-02-21T16:30:48.244Z,15.50
2019-02-21T16:33:19.445Z,13.45
2019-02-21T16:35:51.058Z,17.37
2019-02-21T16:38:22.587Z,23.87
2019-02-21T16:40:54.266Z,25.55
2019-02-21T16:43:26.053Z,26.45
2019-02-21T16:46:07.349Z,24.43
2019-02-21T16:48:31.297Z,20.17
2019-02-21T16:51:02.770Z,19.92
2019-02-21T16:53:34.584Z,21.10
2019-02-21T16:56:06.882Z,26.60
2019-02-21T16:58:38.512Z,23.73
2019-02-21T17:01:09.964Z,19.00
2019-02-21T17:03:41.355Z,25.68
2019-02-21T17:06:12.767Z,27.07
2019-02-21T17:08:44.421Z,23.67
2019-02-21T17:11:16.032Z,18.80
2019-02-21T17:13:47.521Z,16.52
2019-02-21T17:16:19.026Z,18.15
2019-02-21T17:18:50.567Z,16.42
2019-02-21T17:21:21.902Z,21.93
2019-02-21T17:23:53.914Z,25.23
2019-02-21T17:26:25.379Z,18.15
2019-02-21T17:28:56.787Z,24.15
2019-02-21T17:31:28.123Z,19.75
2019-02-21T17:33:59.618Z,23.12
2019-02-21T17:36:32.795Z,17.82
2019-02-21T17:39:05.047Z,21.15
2019-02-21T17:41:37.950Z,14.80
2019-02-21T17:44:09.649Z,20.65
2019-02-21T17:46:42.402Z,18.37
2019-02-21T17:49:15.608Z,18.40
2019-02-21T17:51:48.273Z,17.23
2019-02-21T17:54:19.736Z,17.55
2019-02-21T17:56:51.000Z,15.72
2019-02-21T17:59:22.542Z,18.25
2019-02-21T18:01:54.042Z,16.95
2019-02-21T18:04:25.863Z,18.25
2019-02-21T18:06:57.233Z,17.73
2019-02-21T18:09:28.831Z,19.35
2019-02-21T18:12:00.126Z,16.15
2019-02-21T18:14:31.747Z,17.92
2019-02-21T18:17:03.456Z,17.62
2019-02-21T18:19:34.975Z,17.87
2019-02-21T18:22:06.648Z,15.88
2019-02-21T18:24:37.901Z,17.57
2019-02-21T18:27:09.180Z,16.67
2019-02-21T18:29:40.403Z,20.88
2019-02-21T18:32:11.697Z,18.45
2019-02-21T18:34:43.131Z,19.67
2019-02-21T18:37:14.542Z,19.75
2019-02-21T18:39:45.951Z,22.15
2019-02-21T18:42:17.457Z,21.07
2019-02-21T18:44:48.817Z,26.05
2019-02-21T18:47:20.215Z,20.97
2019-02-21T18:49:51.577Z,28.25
2019-02-21T18:52:22.948Z,19.80
2019-02-21T18:54:54.209Z,23.73
2019-02-21T18:57:25.910Z,18.90
2019-02-21T18:59:57.185Z,19.75
2019-02-21T19:02:28.634Z,19.02
2019-02-21T19:05:00.019Z,21.68
2019-02-21T19:07:31.389Z,20.08
2019-02-21T19:10:02.918Z,20.37
2019-02-21T19:12:34.534Z,24.43
2019-02-21T19:15:06.369Z,20.27
2019-02-21T19:17:37.797Z,18.25
2019-02-21T19:20:10.490Z,21.65
2019-02-21T19:22:41.951Z,18.52
2019-02-21T19:25:14.039Z,20.82
2019-02-21T19:27:45.506Z,20.27
2019-02-21T19:30:21.113Z,19.95
2019-02-21T19:32:52.797Z,22.55
2019-02-21T19:35:24.440Z,21.93
2019-02-21T19:37:56.375Z,18.95
2019-02-21T19:40:27.915Z,24.32
2019-02-21T19:43:00.256Z,99.77
2019-02-21T19:45:32.319Z,27.10
2019-02-21T19:48:04.533Z,24.67
2019-02-21T19:50:36.171Z,24.65
2019-02-21T19:53:07.935Z,26.15
2019-02-21T19:55:39.475Z,24.27
2019-02-21T19:58:10.901Z,22.45
2019-02-21T20:00:42.615Z,24.35
2019-02-21T20:03:14.200Z,26.35
2019-02-21T20:05:45.871Z,27.22
2019-02-21T20:08:21.390Z,25.25
2019-02-21T20:10:51.258Z,24.35
2019-02-21T20:13:22.739Z,25.60
2019-02-21T20:15:54.407Z,27.67
2019-02-21T20:18:26.099Z,28.95
2019-02-21T20:20:57.495Z,28.75
2019-02-21T20:23:29.142Z,21.35
2019-02-21T20:26:00.800Z,25.12
2019-02-21T20:28:32.221Z,26.42
2019-02-21T20:31:05.318Z,25.62
2019-02-21T20:33:36.923Z,23.38
2019-02-21T20:36:08.365Z,21.30
2019-02-21T20:38:39.695Z,27.50
2019-02-21T20:41:11.055Z,26.45
2019-02-21T20:43:42.512Z,23.80
2019-02-21T20:46:14.047Z,19.65
2019-02-21T20:48:45.369Z,24.12
2019-02-21T20:51:17.907Z,21.52
2019-02-21T20:53:49.501Z,21.20
2019-02-21T20:56:21.278Z,22.95
2019-02-21T20:58:52.817Z,22.52
2019-02-21T21:01:24.249Z,31.65
2019-02-21T21:03:55.738Z,27.40
2019-02-21T21:06:27.260Z,20.25
2019-02-21T21:08:58.690Z,26.37
2019-02-21T21:11:30.131Z,32.17
2019-02-21T21:14:01.872Z,19.42
2019-02-21T21:16:33.722Z,17.90
2019-02-21T21:19:05.521Z,18.02
2019-02-21T21:21:36.932Z,20.00
2019-02-21T21:24:08.526Z,21.95
2019-02-21T21:26:40.011Z,17.82
2019-02-21T21:29:11.773Z,24.30
2019-02-21T21:31:43.315Z,18.90
2019-02-21T21:34:14.808Z,21.82
2019-02-21T21:36:46.327Z,18.05
2019-02-21T21:39:18.088Z,19.60
2019-02-21T21:41:49.615Z,18.02
2019-02-21T21:44:21.097Z,19.40
2019-02-21T21:46:52.599Z,19.62
2019-02-21T21:49:24.325Z,19.07
2019-02-21T21:51:56.315Z,16.23
2019-02-21T21:54:27.652Z,19.57
2019-02-21T21:56:59.336Z,18.65
2019-02-21T21:59:30.857Z,19.85
2019-02-21T22:02:02.424Z,20.65
2019-02-21T22:04:34.268Z,17.55
2019-02-21T22:07:05.756Z,17.15
2019-02-21T22:09:37.495Z,17.65
2019-02-21T22:12:08.841Z,18.77
2019-02-21T22:14:40.460Z,15.98
2019-02-21T22:17:11.910Z,16.15
2019-02-21T22:19:43.420Z,17.95
2019-02-21T22:22:15.038Z,17.65
2019-02-21T22:24:46.529Z,17.20
2019-02-21T22:27:17.993Z,18.65
2019-02-21T22:29:49.580Z,17.15
2019-02-21T22:32:21.427Z,18.60
2019-02-21T22:34:52.972Z,20.17
2019-02-21T22:37:24.620Z,15.83
2019-02-21T22:39:56.431Z,21.45
2019-02-21T22:42:28.030Z,20.48
2019-02-21T22:44:59.530Z,18.52
2019-02-21T22:47:31.074Z,15.08
2019-02-21T22:50:02.673Z,19.05
2019-02-21T22:52:34.437Z,16.77
2019-02-21T22:55:09.793Z,17.67
2019-02-21T22:57:39.789Z,19.75
2019-02-21T23:01:00.289Z,17.02
2019-02-21T23:03:52.434Z,18.32
2019-02-21T23:06:45.772Z,22.27
2019-02-21T23:09:27.148Z,18.45
2019-02-21T23:11:52.795Z,18.40
2019-02-21T23:14:24.334Z,16.67
2019-02-21T23:16:56.036Z,18.07
2019-02-21T23:19:27.509Z,16.93
2019-02-21T23:21:59.187Z,17.55
2019-02-21T23:24:30.930Z,16.23
2019-02-21T23:27:02.657Z,17.65
2019-02-21T23:29:34.478Z,17.05
2019-02-21T23:32:06.149Z,21.57
2019-02-21T23:34:39.640Z,17.92
2019-02-21T23:37:11.450Z,27.05
2019-02-21T23:39:43.419Z,20.77
2019-02-21T23:42:14.822Z,15.98
2019-02-21T23:44:46.488Z,17.35
2019-02-21T23:47:18.137Z,18.25
2019-02-21T23:49:49.695Z,18.65
2019-02-21T23:52:21.476Z,18.55
2019-02-21T23:54:52.980Z,20.20
2019-02-21T23:57:24.682Z,18.25
2019-02-21T23:59:56.326Z,15.70
